Time,TemperatureF,DewpointF,PressureIn,WindDirection,WindDirectionDegrees,WindSpeedMPH,WindSpeedGustMPH,Humidity,HourlyPrecipIn,Conditions,Clouds,dailyrainin,SolarRadiationWatts/m^2,SoftwareType,DateUTC
2013-09-18 00:01:00,45.0,43.0,-100.00,West,278,4.0,11.0,92,0.00,,,0.00,0.000000,,2013-09-18 07:01:00,
2013-09-18 00:42:00,45.0,45.0,-100.00,West,270,2.0,7.0,99,0.00,,,0.00,0.000000,,2013-09-18 07:42:00,
2013-09-18 00:52:00,45.0,45.0,-100.00,West,270,2.0,7.0,99,0.00,,,0.00,0.000000,,2013-09-18 07:52:00,
2013-09-18 01:02:00,45.0,45.0,-100.00,West,270,2.0,7.0,99,0.00,,,0.00,0.000000,,2013-09-18 08:02:00,
2013-09-18 01:42:00,43.0,43.0,-100.00,SW,220,2.0,7.0,99,0.00,,,0.00,0.000000,,2013-09-18 08:42:00,
2013-09-18 01:52:00,43.0,43.0,-100.00,SW,220,2.0,7.0,99,0.00,,,0.00,0.000000,,2013-09-18 08:52:00,
2013-09-18 02:02:00,43.0,43.0,-100.00,SW,220,2.0,7.0,99,0.00,,,0.00,0.000000,,2013-09-18 09:02:00,
2013-09-18 02:43:00,43.0,43.0,-100.00,WSW,256,2.0,9.0,99,0.00,,,0.00,0.000000,,2013-09-18 09:43:00,
2013-09-18 02:53:00,43.0,43.0,-100.00,WSW,256,2.0,9.0,99,0.00,,,0.00,0.000000,,2013-09-18 09:53:00,
2013-09-18 03:03:00,43.0,43.0,-100.00,WSW,256,2.0,9.0,99,0.00,,,0.00,0.000000,,2013-09-18 10:03:00,
2013-09-18 03:43:00,44.0,44.0,-100.00,WSW,245,3.0,10.0,99,0.00,,,0.00,0.000000,,2013-09-18 10:43:00,
2013-09-18 03:53:00,44.0,44.0,-100.00,WSW,245,3.0,10.0,99,0.00,,,0.00,0.000000,,2013-09-18 10:53:00,
2013-09-18 04:02:00,44.0,44.0,-100.00,WSW,245,3.0,10.0,99,0.00,,,0.00,0.000000,,2013-09-18 11:02:00,
2013-09-18 04:42:00,46.0,46.0,-100.00,NE,53,2.0,10.0,99,0.00,,,0.00,0.000000,,2013-09-18 11:42:00,
2013-09-18 04:52:00,46.0,46.0,-100.00,NE,53,2.0,10.0,99,0.00,,,0.00,0.000000,,2013-09-18 11:52:00,
2013-09-18 05:01:00,46.0,46.0,-100.00,NE,53,2.0,10.0,99,0.00,,,0.00,0.000000,,2013-09-18 12:01:00,
2013-09-18 05:43:00,46.0,46.0,-100.00,WNW,283,2.0,8.0,99,0.00,,,0.00,0.000000,,2013-09-18 12:43:00,
2013-09-18 05:52:00,46.0,46.0,-100.00,WNW,283,2.0,8.0,99,0.00,,,0.00,0.000000,,2013-09-18 12:52:00,
2013-09-18 06:01:00,46.0,46.0,-100.00,WNW,283,2.0,8.0,99,0.00,,,0.00,0.000000,,2013-09-18 13:01:00,
2013-09-18 21:01:00,44.0,42.0,-100.00,South,189,2.0,7.0,94,0.00,,,0.00,0.000000,,2013-09-19 04:01:00,
2013-09-18 21:44:00,46.0,45.0,-100.00,SSE,157,2.0,6.0,96,0.00,,,0.00,0.000000,,2013-09-19 04:44:00,
2013-09-18 21:54:00,46.0,45.0,-100.00,SSE,157,2.0,6.0,96,0.00,,,0.00,0.000000,,2013-09-19 04:54:00,
2013-09-18 22:03:00,46.0,45.0,-100.00,SSE,157,2.0,6.0,96,0.00,,,0.00,0.000000,,2013-09-19 05:03:00,
2013-09-18 22:43:00,45.0,44.0,-100.00,SE,137,3.0,9.0,95,0.00,,,0.00,0.000000,,2013-09-19 05:43:00,
2013-09-18 22:52:00,45.0,44.0,-100.00,SE,137,3.0,9.0,95,0.00,,,0.00,0.000000,,2013-09-19 05:52:00,
2013-09-18 23:02:00,45.0,44.0,-100.00,SE,137,3.0,9.0,95,0.00,,,0.00,0.000000,,2013-09-19 06:02:00,
2013-09-18 23:43:00,43.0,41.0,-100.00,South,178,2.0,7.0,93,0.00,,,-99.99,0.000000,,2013-09-19 06:43:00,
2013-09-18 23:52:00,43.0,41.0,-100.00,South,178,2.0,7.0,93,0.00,,,-99.99,0.000000,,2013-09-19 06:52:00,